createdAt,value
2023-05-21T00:01:48.449Z,20.10
2023-05-21T00:04:16.214Z,20.16
2023-05-21T00:06:43.652Z,20.68
2023-05-21T00:09:12.883Z,20.24
2023-05-21T00:11:40.748Z,20.30
2023-05-21T00:14:08.229Z,20.39
2023-05-21T00:16:35.644Z,20.53
2023-05-21T00:19:03.554Z,19.38
2023-05-21T00:21:31.700Z,19.68
2023-05-21T00:23:59.152Z,20.34
2023-05-21T00:26:26.900Z,20.02
2023-05-21T00:28:54.859Z,20.21
2023-05-21T00:31:22.414Z,20.13
2023-05-21T00:33:50.717Z,20.15
2023-05-21T00:36:18.115Z,19.95
2023-05-21T00:38:45.690Z,20.48
2023-05-21T00:41:13.742Z,20.31
2023-05-21T00:43:42.036Z,20.39
2023-05-21T00:46:13.776Z,20.58
2023-05-21T00:48:41.504Z,20.61
2023-05-21T00:51:09.973Z,20.32
2023-05-21T00:53:37.688Z,19.58
2023-05-21T00:56:05.704Z,19.90
2023-05-21T00:58:33.565Z,19.64
2023-05-21T01:01:06.850Z,19.89
2023-05-21T01:03:38.357Z,20.20
2023-05-21T01:06:06.899Z,20.20
2023-05-21T01:08:35.120Z,19.23
2023-05-21T01:11:02.725Z,19.82
2023-05-21T01:13:30.494Z,20.14
2023-05-21T01:15:59.172Z,19.86
2023-05-21T01:18:26.657Z,19.68
2023-05-21T01:20:55.226Z,20.04
2023-05-21T01:23:22.923Z,19.23
2023-05-21T01:25:50.561Z,19.39
2023-05-21T01:28:17.926Z,19.66
2023-05-21T01:30:45.607Z,19.53
2023-05-21T01:33:17.345Z,19.93
2023-05-21T01:35:47.997Z,19.71
2023-05-21T01:38:29.474Z,19.74
2023-05-21T01:40:59.940Z,19.41
2023-05-21T01:43:28.072Z,19.55
2023-05-21T01:45:56.181Z,19.73
2023-05-21T01:48:24.261Z,19.11
2023-05-21T01:50:53.062Z,19.54
2023-05-21T01:53:20.951Z,19.65
2023-05-21T01:55:48.565Z,19.53
2023-05-21T01:58:17.012Z,19.22
2023-05-21T02:00:45.463Z,19.37
2023-05-21T02:03:15.066Z,18.28
2023-05-21T02:05:42.591Z,18.70
2023-05-21T02:08:10.104Z,19.26
2023-05-21T02:10:37.810Z,19.01
2023-05-21T02:13:05.199Z,19.26
2023-05-21T02:15:34.777Z,19.28
2023-05-21T02:18:03.465Z,18.82
2023-05-21T02:20:31.373Z,19.45
2023-05-21T02:22:58.815Z,19.10
2023-05-21T02:25:26.273Z,18.83
2023-05-21T02:27:54.107Z,19.26
2023-05-21T02:30:21.608Z,19.55
2023-05-21T02:32:50.023Z,18.94
2023-05-21T02:35:17.843Z,19.25
2023-05-21T02:37:45.574Z,18.71
2023-05-21T02:40:13.147Z,19.11
2023-05-21T02:42:41.548Z,19.24
2023-05-21T02:45:10.099Z,19.34
2023-05-21T02:47:41.194Z,19.34
2023-05-21T02:50:09.305Z,19.62
2023-05-21T02:52:38.310Z,19.46
2023-05-21T02:55:06.382Z,19.69
2023-05-21T02:57:34.061Z,19.19
2023-05-21T03:00:01.454Z,19.45
2023-05-21T03:02:30.307Z,19.69
2023-05-21T03:04:58.811Z,19.44
2023-05-21T03:07:26.214Z,19.25
2023-05-21T03:09:53.719Z,19.46
2023-05-21T03:12:21.382Z,19.05
2023-05-21T03:14:49.348Z,19.35
2023-05-21T03:17:17.276Z,18.84
2023-05-21T03:19:45.017Z,18.93
2023-05-21T03:22:12.470Z,19.32
2023-05-21T03:24:40.077Z,19.36
2023-05-21T03:27:08.158Z,19.26
2023-05-21T03:29:36.120Z,18.67
2023-05-21T03:32:03.842Z,18.89
2023-05-21T03:34:34.413Z,19.22
2023-05-21T03:37:02.217Z,19.32
2023-05-21T03:39:29.832Z,19.32
2023-05-21T03:41:57.818Z,19.50
2023-05-21T03:44:26.127Z,19.27
2023-05-21T03:46:53.938Z,19.52
2023-05-21T03:49:21.827Z,19.65
2023-05-21T03:51:50.018Z,19.41
2023-05-21T03:54:18.831Z,19.39
2023-05-21T03:56:46.733Z,19.57
2023-05-21T03:59:14.184Z,19.43
2023-05-21T04:01:42.711Z,19.53
2023-05-21T04:04:12.233Z,19.75
2023-05-21T04:06:42.343Z,19.31
2023-05-21T04:09:10.080Z,19.13
2023-05-21T04:11:37.991Z,18.84
2023-05-21T04:14:06.240Z,19.48
2023-05-21T04:16:35.483Z,19.39
2023-05-21T04:19:04.977Z,19.37
2023-05-21T04:21:32.383Z,19.47
2023-05-21T04:24:00.777Z,19.52
2023-05-21T04:26:29.558Z,19.31
2023-05-21T04:28:59.369Z,19.14
2023-05-21T04:31:26.932Z,19.31
2023-05-21T04:33:54.674Z,19.92
2023-05-21T04:36:22.069Z,20.42
2023-05-21T04:38:49.913Z,20.99
2023-05-21T04:41:19.105Z,20.60
2023-05-21T04:43:46.655Z,21.16
2023-05-21T04:46:14.876Z,21.37
2023-05-21T04:48:42.799Z,22.51
2023-05-21T04:51:11.076Z,23.05
2023-05-21T04:53:38.850Z,23.30
2023-05-21T04:56:07.410Z,23.55
2023-05-21T04:58:34.798Z,23.81
2023-05-21T05:01:04.124Z,24.68
2023-05-21T05:03:31.923Z,26.87
2023-05-21T05:06:00.088Z,27.71
2023-05-21T05:08:27.485Z,28.01
2023-05-21T05:10:55.226Z,27.88
2023-05-21T05:13:22.738Z,28.80
2023-05-21T05:15:51.473Z,29.68
2023-05-21T05:18:20.466Z,30.24
2023-05-21T05:20:47.830Z,30.25
2023-05-21T05:23:15.408Z,29.83
2023-05-21T05:25:43.132Z,28.57
2023-05-21T05:28:10.757Z,28.67
2023-05-21T05:30:38.265Z,29.90
2023-05-21T05:33:07.884Z,30.76
2023-05-21T05:35:36.530Z,30.65
2023-05-21T05:38:04.172Z,31.00
2023-05-21T05:40:31.897Z,30.11
2023-05-21T05:42:59.330Z,31.62
2023-05-21T05:45:26.888Z,31.70
2023-05-21T05:47:55.076Z,30.92
2023-05-21T05:50:22.540Z,31.63
2023-05-21T05:52:51.295Z,30.99
2023-05-21T05:55:18.918Z,30.56
2023-05-21T05:57:46.303Z,32.36
2023-05-21T06:00:14.285Z,30.58
2023-05-21T06:02:44.077Z,30.05
2023-05-21T06:05:11.488Z,30.14
2023-05-21T06:07:39.638Z,31.45
2023-05-21T06:10:07.856Z,29.58
2023-05-21T06:12:35.419Z,30.76
2023-05-21T06:15:02.949Z,31.86
2023-05-21T06:17:33.267Z,30.44
2023-05-21T06:20:00.983Z,29.89
2023-05-21T06:22:28.864Z,32.65
2023-05-21T06:24:56.835Z,31.88
2023-05-21T06:27:24.333Z,29.76
2023-05-21T06:29:51.783Z,31.11
2023-05-21T06:32:21.420Z,29.68
2023-05-21T06:34:48.911Z,31.92
2023-05-21T06:37:26.427Z,33.61
2023-05-21T06:39:54.730Z,32.98
2023-05-21T06:42:22.354Z,30.10
2023-05-21T06:44:52.512Z,34.08
2023-05-21T06:47:20.993Z,34.33
2023-05-21T06:49:48.527Z,34.66
2023-05-21T06:52:15.958Z,34.46
2023-05-21T06:54:44.254Z,36.10
2023-05-21T06:57:11.675Z,34.66
2023-05-21T06:59:39.094Z,35.50
2023-05-21T07:02:06.871Z,35.52
2023-05-21T07:04:35.315Z,35.23
2023-05-21T07:07:04.592Z,37.24
2023-05-21T07:09:32.370Z,36.52
2023-05-21T07:11:59.902Z,35.61
2023-05-21T07:14:27.367Z,35.28
2023-05-21T07:16:55.078Z,36.37
2023-05-21T07:19:23.062Z,37.14
2023-05-21T07:21:50.628Z,37.53
2023-05-21T07:24:18.303Z,35.63
2023-05-21T07:26:45.877Z,33.24
2023-05-21T07:29:13.479Z,34.79
2023-05-21T07:31:41.366Z,34.89
2023-05-21T07:34:08.889Z,36.02
2023-05-21T07:36:37.041Z,35.56
2023-05-21T07:39:05.071Z,34.84
2023-05-21T07:41:32.841Z,35.91
2023-05-21T07:44:01.730Z,35.43
2023-05-21T07:46:31.714Z,37.13
2023-05-21T07:48:59.255Z,36.70
2023-05-21T07:51:27.019Z,35.67
2023-05-21T07:53:55.359Z,37.16
2023-05-21T07:56:26.935Z,36.31
2023-05-21T07:58:54.687Z,37.11
2023-05-21T08:01:22.228Z,37.67
2023-05-21T08:03:50.064Z,36.54
2023-05-21T08:06:17.695Z,38.69
2023-05-21T08:08:45.278Z,39.21
2023-05-21T08:11:13.155Z,38.59
2023-05-21T08:13:41.094Z,41.10
2023-05-21T08:16:09.784Z,36.84
2023-05-21T08:18:37.441Z,39.60
2023-05-21T08:21:05.119Z,40.51
2023-05-21T08:23:32.712Z,40.30
2023-05-21T08:26:00.633Z,40.86
2023-05-21T08:28:29.022Z,37.41
2023-05-21T08:30:56.778Z,40.22
2023-05-21T08:33:24.602Z,38.38
2023-05-21T08:35:51.964Z,38.99
2023-05-21T08:38:19.622Z,39.78
2023-05-21T08:40:52.336Z,41.39
2023-05-21T08:43:19.737Z,39.92
2023-05-21T08:45:53.295Z,38.95
2023-05-21T08:48:22.439Z,39.13
2023-05-21T08:50:53.546Z,39.41
2023-05-21T08:53:28.013Z,40.58
2023-05-21T08:55:56.360Z,38.33
2023-05-21T08:58:24.570Z,38.29
2023-05-21T09:00:54.703Z,35.62
2023-05-21T09:03:23.148Z,39.77
2023-05-21T09:05:51.794Z,39.12
2023-05-21T09:08:22.328Z,39.61
2023-05-21T09:10:50.990Z,38.97
2023-05-21T09:13:19.431Z,38.33
2023-05-21T09:15:47.691Z,35.88
2023-05-21T09:18:15.630Z,35.34
2023-05-21T09:20:44.958Z,35.84
2023-05-21T09:23:16.739Z,36.31
2023-05-21T09:25:48.466Z,35.52
2023-05-21T09:28:16.838Z,37.67
2023-05-21T09:30:48.260Z,36.87
2023-05-21T09:33:26.220Z,40.23
2023-05-21T09:35:53.735Z,40.43
2023-05-21T09:38:24.994Z,39.18
2023-05-21T09:40:54.925Z,37.69
2023-05-21T09:43:23.168Z,38.43
2023-05-21T09:45:55.101Z,39.98
2023-05-21T09:48:36.756Z,41.54
2023-05-21T09:51:11.089Z,38.49
2023-05-21T09:53:49.739Z,41.57
2023-05-21T09:56:31.967Z,40.64
2023-05-21T09:59:01.974Z,40.28
2023-05-21T10:01:29.378Z,40.55
2023-05-21T10:03:58.758Z,42.16
2023-05-21T10:06:31.071Z,40.92
2023-05-21T10:09:01.192Z,40.68
2023-05-21T10:11:31.111Z,40.87
2023-05-21T10:14:01.508Z,40.74
2023-05-21T10:16:29.104Z,39.37
2023-05-21T10:18:57.675Z,36.70
2023-05-21T10:21:26.172Z,34.94
2023-05-21T10:23:53.879Z,39.18
2023-05-21T10:26:24.189Z,39.29
2023-05-21T10:28:52.187Z,39.46
2023-05-21T10:31:19.642Z,39.78
2023-05-21T10:33:47.074Z,39.93
2023-05-21T10:36:16.747Z,38.42
2023-05-21T10:38:44.257Z,39.22
2023-05-21T10:41:15.921Z,37.44
2023-05-21T10:44:11.279Z,36.68
2023-05-21T10:46:59.932Z,34.65
2023-05-21T10:49:44.396Z,35.49
2023-05-21T10:52:28.121Z,33.87
2023-05-21T10:55:23.563Z,31.68
2023-05-21T10:57:59.302Z,31.57
2023-05-21T11:00:27.182Z,29.33
2023-05-21T11:02:54.739Z,30.24
2023-05-21T11:05:56.328Z,30.65
2023-05-21T11:08:29.083Z,30.15
2023-05-21T11:10:58.346Z,30.11
2023-05-21T11:13:27.005Z,30.09
2023-05-21T11:16:01.406Z,30.11
2023-05-21T11:18:49.239Z,29.23
2023-05-21T11:21:18.433Z,29.54
2023-05-21T11:23:52.300Z,29.23
2023-05-21T11:26:26.991Z,29.35
2023-05-21T11:29:06.640Z,29.30
2023-05-21T11:31:38.444Z,29.09
2023-05-21T11:34:29.589Z,28.82
2023-05-21T11:37:25.033Z,28.62
2023-05-21T11:39:52.718Z,28.71
2023-05-21T11:42:36.256Z,28.58
2023-05-21T11:45:04.247Z,28.21
2023-05-21T11:47:33.033Z,27.75
2023-05-21T11:50:01.656Z,28.50
2023-05-21T11:52:30.393Z,28.81
2023-05-21T11:54:58.284Z,27.89
2023-05-21T11:57:31.238Z,28.12
2023-05-21T11:59:59.910Z,28.68
2023-05-21T12:02:33.715Z,28.58
2023-05-21T12:05:01.451Z,28.78
2023-05-21T12:07:32.297Z,28.89
2023-05-21T12:10:00.285Z,28.18
2023-05-21T12:12:33.034Z,28.53
2023-05-21T12:15:10.373Z,28.94
2023-05-21T12:17:39.221Z,28.43
2023-05-21T12:20:08.343Z,28.63
2023-05-21T12:22:35.776Z,28.93
2023-05-21T12:25:04.396Z,28.55
2023-05-21T12:27:33.422Z,28.40
2023-05-21T12:30:02.215Z,28.24
2023-05-21T12:32:29.997Z,28.57
2023-05-21T12:34:57.403Z,28.63
2023-05-21T12:37:35.513Z,28.57
2023-05-21T12:40:05.202Z,28.71
2023-05-21T12:42:35.682Z,28.45
2023-05-21T12:45:07.337Z,28.47
2023-05-21T12:47:34.761Z,28.31
2023-05-21T12:50:08.131Z,28.46
2023-05-21T12:52:35.763Z,28.19
2023-05-21T12:55:03.253Z,28.07
2023-05-21T12:57:38.617Z,28.44
2023-05-21T13:00:12.646Z,27.92
2023-05-21T13:02:41.271Z,27.98
2023-05-21T13:05:17.524Z,28.38
2023-05-21T13:07:46.920Z,28.49
2023-05-21T13:10:16.441Z,29.17
2023-05-21T13:12:44.816Z,28.84
2023-05-21T13:15:12.405Z,28.89
2023-05-21T13:17:40.149Z,27.97
2023-05-21T13:20:08.854Z,28.28
2023-05-21T13:22:39.074Z,28.53
2023-05-21T13:25:07.328Z,27.31
2023-05-21T13:27:34.761Z,27.87
2023-05-21T13:30:02.231Z,28.03
2023-05-21T13:32:30.155Z,27.71
2023-05-21T13:34:57.742Z,28.04
2023-05-21T13:37:25.161Z,27.80
2023-05-21T13:39:52.788Z,27.71
2023-05-21T13:42:21.177Z,28.14
2023-05-21T13:44:48.729Z,27.34
2023-05-21T13:47:16.467Z,27.72
2023-05-21T13:49:43.871Z,27.62
2023-05-21T13:52:11.703Z,27.51
2023-05-21T13:54:39.685Z,27.59
2023-05-21T13:57:07.082Z,27.40
2023-05-21T13:59:34.471Z,27.94
2023-05-21T14:02:02.197Z,27.51
2023-05-21T14:04:30.011Z,27.50
2023-05-21T14:06:57.381Z,27.27
2023-05-21T14:09:27.249Z,28.01
2023-05-21T14:11:56.167Z,28.35
2023-05-21T14:14:23.668Z,27.98
2023-05-21T14:16:51.511Z,28.48
2023-05-21T14:19:19.346Z,28.62
2023-05-21T14:21:46.766Z,28.15
2023-05-21T14:24:14.127Z,28.27
2023-05-21T14:26:41.865Z,27.67
2023-05-21T14:29:09.377Z,27.15
2023-05-21T14:31:36.960Z,28.32
2023-05-21T14:34:06.837Z,28.60
2023-05-21T14:36:34.561Z,28.75
2023-05-21T14:39:01.980Z,28.81
2023-05-21T14:41:29.710Z,28.13
2023-05-21T14:43:57.141Z,28.27
2023-05-21T14:46:24.651Z,27.83
2023-05-21T14:48:52.932Z,27.61
2023-05-21T14:51:20.422Z,27.70
2023-05-21T14:53:47.826Z,27.89
2023-05-21T14:56:15.646Z,27.72
2023-05-21T14:58:43.035Z,27.86
2023-05-21T15:01:10.548Z,28.25
2023-05-21T15:03:38.386Z,27.50
2023-05-21T15:06:05.919Z,27.76
2023-05-21T15:08:33.323Z,27.31
2023-05-21T15:11:01.064Z,27.66
2023-05-21T15:13:28.480Z,27.35
2023-05-21T15:15:56.210Z,27.81
2023-05-21T15:18:24.879Z,27.71
2023-05-21T15:20:52.892Z,28.04
2023-05-21T15:23:20.434Z,28.54
2023-05-21T15:25:48.146Z,27.41
2023-05-21T15:28:15.610Z,27.31
2023-05-21T15:30:43.048Z,27.74
2023-05-21T15:33:11.354Z,27.73
2023-05-21T15:35:39.263Z,28.33
2023-05-21T15:38:06.929Z,28.08
2023-05-21T15:40:34.628Z,27.72
2023-05-21T15:43:02.111Z,28.24
2023-05-21T15:45:29.583Z,27.79
2023-05-21T15:47:57.333Z,27.23
2023-05-21T15:50:24.861Z,27.61
2023-05-21T15:52:53.564Z,27.91
2023-05-21T15:55:21.485Z,28.05
2023-05-21T15:57:49.040Z,28.08
2023-05-21T16:00:16.514Z,28.06
2023-05-21T16:02:44.269Z,28.19
2023-05-21T16:05:11.754Z,28.41
2023-05-21T16:07:39.305Z,27.84
2023-05-21T16:10:09.738Z,27.49
2023-05-21T16:12:37.191Z,27.71
2023-05-21T16:15:05.418Z,27.58
2023-05-21T16:17:33.173Z,27.30
2023-05-21T16:20:00.786Z,27.48
2023-05-21T16:22:28.185Z,27.36
2023-05-21T16:24:56.310Z,27.52
2023-05-21T16:27:23.718Z,26.92
2023-05-21T16:29:51.098Z,27.65
2023-05-21T16:32:18.883Z,27.80
2023-05-21T16:34:46.346Z,27.76
2023-05-21T16:37:13.785Z,26.98
2023-05-21T16:39:41.436Z,26.89
2023-05-21T16:42:08.819Z,26.83
2023-05-21T16:44:37.880Z,27.44
2023-05-21T16:47:05.752Z,27.36
2023-05-21T16:49:33.171Z,27.64
2023-05-21T16:52:01.648Z,27.43
2023-05-21T16:54:29.329Z,27.84
2023-05-21T16:56:56.884Z,27.82
2023-05-21T16:59:24.316Z,28.09
2023-05-21T17:01:52.038Z,27.79
2023-05-21T17:04:19.470Z,27.62
2023-05-21T17:06:46.882Z,27.68
2023-05-21T17:09:15.074Z,27.38
2023-05-21T17:11:43.643Z,27.40
2023-05-21T17:14:13.522Z,27.45
2023-05-21T17:16:45.332Z,27.42
2023-05-21T17:19:12.766Z,27.22
2023-05-21T17:21:40.403Z,27.19
2023-05-21T17:24:08.080Z,27.10
2023-05-21T17:26:35.452Z,27.02
2023-05-21T17:29:02.912Z,26.65
2023-05-21T17:31:32.373Z,27.25
2023-05-21T17:34:00.358Z,27.08
2023-05-21T17:36:27.772Z,26.98
2023-05-21T17:38:55.496Z,26.81
2023-05-21T17:41:25.236Z,26.93
2023-05-21T17:43:52.705Z,26.78
2023-05-21T17:46:20.435Z,26.58
2023-05-21T17:48:47.838Z,26.53
2023-05-21T17:51:15.208Z,26.17
2023-05-21T17:53:42.856Z,26.27
2023-05-21T17:56:11.404Z,26.06
2023-05-21T17:58:38.774Z,26.15
2023-05-21T18:01:06.647Z,25.99
2023-05-21T18:03:34.339Z,25.97
2023-05-21T18:06:01.730Z,25.73
2023-05-21T18:08:29.143Z,25.91
2023-05-21T18:10:57.895Z,25.56
2023-05-21T18:13:25.383Z,25.44
2023-05-21T18:15:52.827Z,25.56
2023-05-21T18:18:21.755Z,25.48
2023-05-21T18:20:50.224Z,25.19
2023-05-21T18:23:17.738Z,24.80
2023-05-21T18:25:45.442Z,24.86
2023-05-21T18:28:12.825Z,24.98
2023-05-21T18:30:40.217Z,24.79
2023-05-21T18:33:08.428Z,24.67
2023-05-21T18:35:35.985Z,24.54
2023-05-21T18:38:04.265Z,24.31
2023-05-21T18:40:33.269Z,24.54
2023-05-21T18:43:00.805Z,24.41
2023-05-21T18:45:28.407Z,24.14
2023-05-21T18:47:56.246Z,24.14
2023-05-21T18:50:23.694Z,24.27
2023-05-21T18:52:53.419Z,24.04
2023-05-21T18:55:21.212Z,24.18
2023-05-21T18:57:48.677Z,23.79
2023-05-21T19:00:16.390Z,23.49
2023-05-21T19:02:44.419Z,23.58
2023-05-21T19:05:12.045Z,23.61
2023-05-21T19:07:41.239Z,23.37
2023-05-21T19:10:10.639Z,23.46
2023-05-21T19:12:39.522Z,22.98
2023-05-21T19:15:07.681Z,23.12
2023-05-21T19:17:36.334Z,23.22
2023-05-21T19:20:05.362Z,22.57
2023-05-21T19:22:32.970Z,22.98
2023-05-21T19:25:00.881Z,23.06
2023-05-21T19:27:29.392Z,22.87
2023-05-21T19:29:56.970Z,22.78
2023-05-21T19:32:24.746Z,22.98
2023-05-21T19:34:52.340Z,22.99
2023-05-21T19:37:19.804Z,22.76
2023-05-21T19:39:50.014Z,22.42
2023-05-21T19:42:18.384Z,22.38
2023-05-21T19:44:46.296Z,22.22
2023-05-21T19:47:14.276Z,22.40
2023-05-21T19:49:41.701Z,22.48
2023-05-21T19:52:10.369Z,21.84
2023-05-21T19:54:38.061Z,22.19
2023-05-21T19:57:05.926Z,22.39
2023-05-21T19:59:33.381Z,22.00
2023-05-21T20:02:01.069Z,21.89
2023-05-21T20:04:28.711Z,21.77
2023-05-21T20:06:56.065Z,22.10
2023-05-21T20:09:23.431Z,22.44
2023-05-21T20:11:51.203Z,22.12
2023-05-21T20:14:18.568Z,22.24
2023-05-21T20:16:47.093Z,21.78
2023-05-21T20:19:15.255Z,21.84
2023-05-21T20:21:42.801Z,21.30
2023-05-21T20:24:11.280Z,21.69
2023-05-21T20:26:39.939Z,22.14
2023-05-21T20:29:08.033Z,21.71
2023-05-21T20:31:35.955Z,21.60
2023-05-21T20:34:07.463Z,21.42
2023-05-21T20:36:35.797Z,21.63
2023-05-21T20:39:03.281Z,21.64
2023-05-21T20:41:37.821Z,21.68
2023-05-21T20:44:05.723Z,21.18
2023-05-21T20:46:34.228Z,21.19
2023-05-21T20:49:01.728Z,21.55
2023-05-21T20:51:29.163Z,21.46
2023-05-21T20:53:57.247Z,21.51
2023-05-21T20:56:40.925Z,21.70
2023-05-21T20:59:11.165Z,21.49
2023-05-21T21:01:39.233Z,21.57
2023-05-21T21:04:06.814Z,21.41
2023-05-21T21:06:34.856Z,21.55
2023-05-21T21:09:02.276Z,21.19
2023-05-21T21:11:29.661Z,21.06
2023-05-21T21:13:57.295Z,21.33
2023-05-21T21:16:24.753Z,21.07
2023-05-21T21:18:52.179Z,21.10
2023-05-21T21:21:19.855Z,21.12
2023-05-21T21:23:47.234Z,21.08
2023-05-21T21:26:14.613Z,21.42
2023-05-21T21:28:42.262Z,20.93
2023-05-21T21:31:09.677Z,21.03
2023-05-21T21:33:37.110Z,21.21
2023-05-21T21:36:05.099Z,21.23
2023-05-21T21:38:32.516Z,20.87
2023-05-21T21:40:59.916Z,21.03
2023-05-21T21:43:27.627Z,20.06
2023-05-21T21:45:55.081Z,20.59
2023-05-21T21:48:22.510Z,20.54
2023-05-21T21:50:50.187Z,20.79
2023-05-21T21:53:17.790Z,20.91
2023-05-21T21:55:45.186Z,20.49
2023-05-21T21:58:12.848Z,20.68
2023-05-21T22:00:40.897Z,20.89
2023-05-21T22:03:08.849Z,20.73
2023-05-21T22:05:36.232Z,20.76
2023-05-21T22:08:03.780Z,21.18
2023-05-21T22:10:33.485Z,20.95
2023-05-21T22:13:02.808Z,20.77
2023-05-21T22:15:31.235Z,20.29
2023-05-21T22:18:00.075Z,20.32
2023-05-21T22:20:30.126Z,20.48
2023-05-21T22:22:57.632Z,20.75
2023-05-21T22:25:25.507Z,20.68
2023-05-21T22:27:52.948Z,20.74
2023-05-21T22:30:20.344Z,21.05
2023-05-21T22:32:48.129Z,21.09
2023-05-21T22:35:15.605Z,21.09
2023-05-21T22:37:43.015Z,20.74
2023-05-21T22:40:10.903Z,21.17
2023-05-21T22:42:38.336Z,21.41
2023-05-21T22:45:06.661Z,21.58
2023-05-21T22:47:37.116Z,21.20
2023-05-21T22:50:04.853Z,21.62
2023-05-21T22:52:32.533Z,21.75
2023-05-21T22:55:00.734Z,21.67
2023-05-21T22:57:28.241Z,21.84
2023-05-21T22:59:56.001Z,21.64
2023-05-21T23:02:23.684Z,21.94
2023-05-21T23:04:51.200Z,21.45
2023-05-21T23:07:18.593Z,21.26
2023-05-21T23:09:46.790Z,21.63
2023-05-21T23:12:14.327Z,21.32
2023-05-21T23:14:41.821Z,21.74
2023-05-21T23:17:09.805Z,21.36
2023-05-21T23:19:37.275Z,21.04
2023-05-21T23:22:04.806Z,21.51
2023-05-21T23:24:35.070Z,21.70
2023-05-21T23:27:03.087Z,22.08
2023-05-21T23:29:30.511Z,22.07
2023-05-21T23:31:58.328Z,22.01
2023-05-21T23:34:25.986Z,20.92
2023-05-21T23:36:53.412Z,21.41
2023-05-21T23:39:21.326Z,21.73
2023-05-21T23:41:48.841Z,21.89
2023-05-21T23:44:16.403Z,21.86
2023-05-21T23:46:44.072Z,21.69
2023-05-21T23:49:11.721Z,21.81
2023-05-21T23:51:39.362Z,21.76
2023-05-21T23:54:08.130Z,21.49
2023-05-21T23:56:35.567Z,21.55
2023-05-21T23:59:02.963Z,21.18
